sensor_id;sensor_type;location;lat;lon;timestamp;pressure;altitude;pressure_sealevel;temperature;humidity
73316;BME280;61545;53.726;-0.444;2023-05-22T00:03:10;1018.9;;;12.5;100.0
73316;BME280;61545;53.726;-0.444;2023-05-22T00:08:09;1018.9;;;12.5;100.0
73316;BME280;61545;53.726;-0.444;2023-05-22T00:13:10;1018.8;;;12.4;100.0
73316;BME280;61545;53.726;-0.444;2023-05-22T00:18:09;1018.7;;;12.4;100.0
73316;BME280;61545;53.726;-0.444;2023-05-22T00:23:07;1018.6;;;12.5;100.0
73316;BME280;61545;53.726;-0.444;2023-05-22T00:28:10;1018.6;;;12.4;100.0
73316;BME280;61545;53.726;-0.444;2023-05-22T00:33:09;1018.7;;;12.4;100.0
73316;BME280;61545;53.726;-0.444;2023-05-22T00:38:16;1018.7;;;12.4;100.0
73316;BME280;61545;53.726;-0.444;2023-05-22T00:43:07;1018.6;;;12.5;100.0
73316;BME280;61545;53.726;-0.444;2023-05-22T00:48:10;1018.5;;;12.3;100.0
73316;BME280;61545;53.726;-0.444;2023-05-22T00:53:11;1018.5;;;12.4;100.0
73316;BME280;61545;53.726;-0.444;2023-05-22T00:58:07;1018.5;;;12.3;100.0
73316;BME280;61545;53.726;-0.444;2023-05-22T01:03:09;1018.4;;;12.2;100.0
73316;BME280;61545;53.726;-0.444;2023-05-22T01:08:10;1018.3;;;12.2;100.0
73316;BME280;61545;53.726;-0.444;2023-05-22T01:13:13;1018.3;;;12.2;100.0
73316;BME280;61545;53.726;-0.444;2023-05-22T01:18:10;1018.2;;;12.2;100.0
73316;BME280;61545;53.726;-0.444;2023-05-22T01:24:13;1018.2;;;12.2;100.0
73316;BME280;61545;53.726;-0.444;2023-05-22T01:29:41;1018.2;;;12.2;100.0
73316;BME280;61545;53.726;-0.444;2023-05-22T01:33:10;1018.2;;;12.2;100.0
73316;BME280;61545;53.726;-0.444;2023-05-22T01:38:21;1018.2;;;12.2;100.0
73316;BME280;61545;53.726;-0.444;2023-05-22T01:43:17;1018.1;;;12.2;100.0
73316;BME280;61545;53.726;-0.444;2023-05-22T01:48:07;1018.1;;;12.2;100.0
73316;BME280;61545;53.726;-0.444;2023-05-22T01:53:10;1018.0;;;12.1;100.0
73316;BME280;61545;53.726;-0.444;2023-05-22T01:58:13;1018.0;;;12.0;100.0
73316;BME280;61545;53.726;-0.444;2023-05-22T02:03:17;1018.0;;;12.0;100.0
73316;BME280;61545;53.726;-0.444;2023-05-22T02:08:12;1018.0;;;12.2;100.0
73316;BME280;61545;53.726;-0.444;2023-05-22T02:13:09;1017.9;;;12.0;100.0
73316;BME280;61545;53.726;-0.444;2023-05-22T02:18:09;1017.9;;;12.0;100.0
73316;BME280;61545;53.726;-0.444;2023-05-22T02:23:07;1017.9;;;11.9;100.0
73316;BME280;61545;53.726;-0.444;2023-05-22T02:28:21;1017.9;;;12.0;100.0
73316;BME280;61545;53.726;-0.444;2023-05-22T02:33:20;1017.8;;;11.9;100.0
73316;BME280;61545;53.726;-0.444;2023-05-22T02:38:27;1017.8;;;11.9;100.0
73316;BME280;61545;53.726;-0.444;2023-05-22T02:43:21;1017.8;;;11.9;100.0
73316;BME280;61545;53.726;-0.444;2023-05-22T02:48:10;1017.9;;;11.8;100.0
73316;BME280;61545;53.726;-0.444;2023-05-22T02:53:22;1017.9;;;11.9;100.0
73316;BME280;61545;53.726;-0.444;2023-05-22T02:58:10;1017.9;;;11.9;100.0
73316;BME280;61545;53.726;-0.444;2023-05-22T03:03:10;1017.8;;;11.9;100.0
73316;BME280;61545;53.726;-0.444;2023-05-22T03:08:07;1017.8;;;11.8;100.0
73316;BME280;61545;53.726;-0.444;2023-05-22T03:18:07;1017.7;;;11.7;100.0
73316;BME280;61545;53.726;-0.444;2023-05-22T03:23:10;1017.7;;;11.6;100.0
73316;BME280;61545;53.726;-0.444;2023-05-22T03:33:10;1017.7;;;11.6;100.0
73316;BME280;61545;53.726;-0.444;2023-05-22T03:38:10;1017.7;;;11.6;100.0
73316;BME280;61545;53.726;-0.444;2023-05-22T03:43:09;1017.6;;;11.5;100.0
73316;BME280;61545;53.726;-0.444;2023-05-22T03:48:07;1017.6;;;11.7;100.0
73316;BME280;61545;53.726;-0.444;2023-05-22T03:53:07;1017.6;;;11.7;100.0
73316;BME280;61545;53.726;-0.444;2023-05-22T03:58:09;1017.7;;;11.8;100.0
73316;BME280;61545;53.726;-0.444;2023-05-22T04:13:10;1017.5;;;11.5;100.0
73316;BME280;61545;53.726;-0.444;2023-05-22T04:18:09;1017.5;;;11.5;100.0
73316;BME280;61545;53.726;-0.444;2023-05-22T04:23:12;1017.5;;;11.6;100.0
73316;BME280;61545;53.726;-0.444;2023-05-22T04:33:07;1017.5;;;11.5;100.0
73316;BME280;61545;53.726;-0.444;2023-05-22T04:38:12;1017.5;;;11.5;100.0
73316;BME280;61545;53.726;-0.444;2023-05-22T04:43:12;1017.5;;;11.4;100.0
73316;BME280;61545;53.726;-0.444;2023-05-22T04:48:07;1017.4;;;11.5;100.0
73316;BME280;61545;53.726;-0.444;2023-05-22T04:58:07;1017.5;;;11.2;100.0
73316;BME280;61545;53.726;-0.444;2023-05-22T05:03:09;1017.5;;;11.4;100.0
73316;BME280;61545;53.726;-0.444;2023-05-22T05:08:07;1017.5;;;11.5;100.0
73316;BME280;61545;53.726;-0.444;2023-05-22T05:13:10;1017.6;;;11.3;100.0
73316;BME280;61545;53.726;-0.444;2023-05-22T05:18:07;1017.6;;;11.4;100.0
73316;BME280;61545;53.726;-0.444;2023-05-22T05:23:07;1017.6;;;11.5;100.0
73316;BME280;61545;53.726;-0.444;2023-05-22T05:28:07;1017.6;;;11.5;100.0
73316;BME280;61545;53.726;-0.444;2023-05-22T05:33:07;1017.6;;;11.6;100.0
73316;BME280;61545;53.726;-0.444;2023-05-22T05:43:07;1017.6;;;11.6;100.0
73316;BME280;61545;53.726;-0.444;2023-05-22T05:48:12;1017.5;;;11.7;100.0
73316;BME280;61545;53.726;-0.444;2023-05-22T05:53:10;1017.6;;;11.7;100.0
73316;BME280;61545;53.726;-0.444;2023-05-22T05:58:09;1017.5;;;11.8;100.0
73316;BME280;61545;53.726;-0.444;2023-05-22T06:03:11;1017.6;;;11.9;100.0
73316;BME280;61545;53.726;-0.444;2023-05-22T06:08:09;1017.6;;;11.9;100.0
73316;BME280;61545;53.726;-0.444;2023-05-22T06:13:07;1017.6;;;11.9;100.0
73316;BME280;61545;53.726;-0.444;2023-05-22T06:18:09;1017.6;;;12.0;100.0
73316;BME280;61545;53.726;-0.444;2023-05-22T06:23:07;1017.7;;;12.0;100.0
73316;BME280;61545;53.726;-0.444;2023-05-22T06:28:10;1017.8;;;12.1;100.0
73316;BME280;61545;53.726;-0.444;2023-05-22T06:33:07;1017.8;;;12.0;100.0
73316;BME280;61545;53.726;-0.444;2023-05-22T06:43:12;1017.9;;;12.2;100.0
73316;BME280;61545;53.726;-0.444;2023-05-22T06:48:10;1017.9;;;12.4;100.0
73316;BME280;61545;53.726;-0.444;2023-05-22T06:53:15;1017.9;;;12.4;100.0
73316;BME280;61545;53.726;-0.444;2023-05-22T06:58:07;1017.9;;;12.5;100.0
73316;BME280;61545;53.726;-0.444;2023-05-22T07:03:07;1018.0;;;12.8;100.0
73316;BME280;61545;53.726;-0.444;2023-05-22T07:08:09;1018.0;;;12.9;100.0
73316;BME280;61545;53.726;-0.444;2023-05-22T07:13:07;1018.0;;;13.1;100.0
73316;BME280;61545;53.726;-0.444;2023-05-22T07:23:07;1018.0;;;13.5;100.0
73316;BME280;61545;53.726;-0.444;2023-05-22T07:33:12;1018.1;;;13.2;100.0
73316;BME280;61545;53.726;-0.444;2023-05-22T07:38:10;1018.2;;;13.2;100.0
73316;BME280;61545;53.726;-0.444;2023-05-22T07:48:09;1018.3;;;13.1;100.0
73316;BME280;61545;53.726;-0.444;2023-05-22T07:53:07;1018.4;;;13.1;100.0
73316;BME280;61545;53.726;-0.444;2023-05-22T07:58:12;1018.3;;;13.3;100.0
73316;BME280;61545;53.726;-0.444;2023-05-22T08:03:10;1018.4;;;13.4;100.0
73316;BME280;61545;53.726;-0.444;2023-05-22T08:08:10;1018.5;;;13.4;100.0
73316;BME280;61545;53.726;-0.444;2023-05-22T08:13:12;1018.5;;;13.4;100.0
73316;BME280;61545;53.726;-0.444;2023-05-22T08:18:09;1018.5;;;13.4;100.0
73316;BME280;61545;53.726;-0.444;2023-05-22T08:23:09;1018.5;;;13.4;100.0
73316;BME280;61545;53.726;-0.444;2023-05-22T08:28:12;1018.5;;;13.4;100.0
73316;BME280;61545;53.726;-0.444;2023-05-22T08:33:09;1018.5;;;13.4;100.0
73316;BME280;61545;53.726;-0.444;2023-05-22T08:38:09;1018.6;;;13.5;100.0
73316;BME280;61545;53.726;-0.444;2023-05-22T08:43:07;1018.6;;;13.4;100.0
73316;BME280;61545;53.726;-0.444;2023-05-22T08:48:15;1018.7;;;13.5;100.0
73316;BME280;61545;53.726;-0.444;2023-05-22T08:53:07;1018.7;;;13.5;100.0
73316;BME280;61545;53.726;-0.444;2023-05-22T08:58:07;1018.7;;;13.5;100.0
73316;BME280;61545;53.726;-0.444;2023-05-22T09:03:07;1018.8;;;13.6;100.0
73316;BME280;61545;53.726;-0.444;2023-05-22T09:08:10;1018.7;;;13.6;100.0
73316;BME280;61545;53.726;-0.444;2023-05-22T09:13:10;1018.7;;;13.5;100.0
73316;BME280;61545;53.726;-0.444;2023-05-22T09:18:09;1018.6;;;13.7;100.0
73316;BME280;61545;53.726;-0.444;2023-05-22T09:23:10;1018.6;;;13.7;100.0
73316;BME280;61545;53.726;-0.444;2023-05-22T09:28:10;1018.7;;;13.9;100.0
73316;BME280;61545;53.726;-0.444;2023-05-22T09:33:11;1018.6;;;13.8;100.0
73316;BME280;61545;53.726;-0.444;2023-05-22T09:38:09;1018.6;;;13.9;100.0
73316;BME280;61545;53.726;-0.444;2023-05-22T09:43:07;1018.6;;;14.1;100.0
73316;BME280;61545;53.726;-0.444;2023-05-22T09:48:08;1018.6;;;14.2;100.0
73316;BME280;61545;53.726;-0.444;2023-05-22T09:58:09;1018.6;;;14.3;100.0
73316;BME280;61545;53.726;-0.444;2023-05-22T10:03:08;1018.6;;;14.1;100.0
73316;BME280;61545;53.726;-0.444;2023-05-22T10:08:13;1018.5;;;14.2;100.0
73316;BME280;61545;53.726;-0.444;2023-05-22T10:13:07;1018.5;;;14.3;100.0
73316;BME280;61545;53.726;-0.444;2023-05-22T10:18:07;1018.5;;;14.4;100.0
73316;BME280;61545;53.726;-0.444;2023-05-22T10:23:10;1018.5;;;14.5;100.0
73316;BME280;61545;53.726;-0.444;2023-05-22T10:28:07;1018.5;;;14.5;100.0
73316;BME280;61545;53.726;-0.444;2023-05-22T10:33:10;1018.5;;;14.7;100.0
73316;BME280;61545;53.726;-0.444;2023-05-22T10:38:33;1018.5;;;14.9;100.0
73316;BME280;61545;53.726;-0.444;2023-05-22T10:43:07;1018.5;;;15.1;100.0
73316;BME280;61545;53.726;-0.444;2023-05-22T10:48:08;1018.5;;;15.2;100.0
73316;BME280;61545;53.726;-0.444;2023-05-22T10:53:31;1018.5;;;15.4;100.0
73316;BME280;61545;53.726;-0.444;2023-05-22T10:58:14;1018.5;;;15.5;100.0
73316;BME280;61545;53.726;-0.444;2023-05-22T11:03:26;1018.4;;;15.5;100.0
73316;BME280;61545;53.726;-0.444;2023-05-22T11:08:40;1018.4;;;15.8;100.0
73316;BME280;61545;53.726;-0.444;2023-05-22T11:13:11;1018.4;;;16.2;100.0
73316;BME280;61545;53.726;-0.444;2023-05-22T11:18:20;1018.3;;;16.4;100.0
73316;BME280;61545;53.726;-0.444;2023-05-22T11:23:23;1018.3;;;16.1;100.0
73316;BME280;61545;53.726;-0.444;2023-05-22T11:28:09;1018.4;;;15.9;100.0
73316;BME280;61545;53.726;-0.444;2023-05-22T11:33:12;1018.3;;;16.0;100.0
73316;BME280;61545;53.726;-0.444;2023-05-22T11:38:07;1018.3;;;16.7;100.0
73316;BME280;61545;53.726;-0.444;2023-05-22T11:43:11;1018.3;;;16.8;100.0
73316;BME280;61545;53.726;-0.444;2023-05-22T11:48:10;1018.2;;;16.7;100.0
73316;BME280;61545;53.726;-0.444;2023-05-22T11:58:12;1018.2;;;16.9;100.0
73316;BME280;61545;53.726;-0.444;2023-05-22T12:03:10;1018.2;;;16.7;100.0
73316;BME280;61545;53.726;-0.444;2023-05-22T12:08:09;1018.1;;;16.4;100.0
73316;BME280;61545;53.726;-0.444;2023-05-22T12:13:07;1017.9;;;16.9;100.0
73316;BME280;61545;53.726;-0.444;2023-05-22T12:18:10;1018.0;;;16.5;100.0
73316;BME280;61545;53.726;-0.444;2023-05-22T12:23:11;1017.9;;;16.6;100.0
73316;BME280;61545;53.726;-0.444;2023-05-22T12:28:07;1017.9;;;16.8;99.9
73316;BME280;61545;53.726;-0.444;2023-05-22T12:33:24;1017.8;;;17.0;94.6
73316;BME280;61545;53.726;-0.444;2023-05-22T12:38:13;1017.8;;;17.0;84.9
73316;BME280;61545;53.726;-0.444;2023-05-22T12:43:29;1017.8;;;16.9;85.3
73316;BME280;61545;53.726;-0.444;2023-05-22T12:48:13;1017.9;;;17.5;86.7
73316;BME280;61545;53.726;-0.444;2023-05-22T12:53:07;1017.9;;;17.4;84.2
73316;BME280;61545;53.726;-0.444;2023-05-22T12:58:12;1017.9;;;17.4;83.6
73316;BME280;61545;53.726;-0.444;2023-05-22T13:03:10;1017.9;;;17.6;80.6
73316;BME280;61545;53.726;-0.444;2023-05-22T13:08:26;1017.9;;;17.9;77.0
73316;BME280;61545;53.726;-0.444;2023-05-22T13:13:10;1017.9;;;17.8;76.7
73316;BME280;61545;53.726;-0.444;2023-05-22T13:18:18;1018.0;;;18.2;74.9
73316;BME280;61545;53.726;-0.444;2023-05-22T13:23:10;1018.0;;;18.2;73.3
73316;BME280;61545;53.726;-0.444;2023-05-22T13:28:22;1018.0;;;18.3;72.0
73316;BME280;61545;53.726;-0.444;2023-05-22T13:33:21;1018.0;;;18.1;71.0
73316;BME280;61545;53.726;-0.444;2023-05-22T13:43:20;1017.9;;;18.4;68.3
73316;BME280;61545;53.726;-0.444;2023-05-22T13:48:21;1018.0;;;18.3;68.9
73316;BME280;61545;53.726;-0.444;2023-05-22T13:53:20;1018.0;;;18.3;69.4
73316;BME280;61545;53.726;-0.444;2023-05-22T13:58:20;1018.0;;;18.4;70.5
73316;BME280;61545;53.726;-0.444;2023-05-22T14:03:29;1018.0;;;18.4;66.7
73316;BME280;61545;53.726;-0.444;2023-05-22T14:08:10;1018.0;;;18.4;67.0
73316;BME280;61545;53.726;-0.444;2023-05-22T14:13:10;1018.1;;;18.5;69.9
73316;BME280;61545;53.726;-0.444;2023-05-22T14:18:07;1018.1;;;18.5;70.6
73316;BME280;61545;53.726;-0.444;2023-05-22T14:23:10;1018.2;;;18.6;71.3
73316;BME280;61545;53.726;-0.444;2023-05-22T14:28:21;1018.2;;;18.2;70.9
73316;BME280;61545;53.726;-0.444;2023-05-22T14:33:10;1018.2;;;18.3;69.9
73316;BME280;61545;53.726;-0.444;2023-05-22T14:38:14;1018.2;;;18.4;70.1
73316;BME280;61545;53.726;-0.444;2023-05-22T14:43:10;1018.2;;;18.4;72.7
73316;BME280;61545;53.726;-0.444;2023-05-22T14:48:20;1018.2;;;18.4;71.4
73316;BME280;61545;53.726;-0.444;2023-05-22T14:53:10;1018.3;;;18.2;70.3
73316;BME280;61545;53.726;-0.444;2023-05-22T14:58:10;1018.2;;;18.2;70.9
73316;BME280;61545;53.726;-0.444;2023-05-22T15:03:28;1018.2;;;18.0;68.0
73316;BME280;61545;53.726;-0.444;2023-05-22T15:08:10;1018.3;;;18.2;67.7
73316;BME280;61545;53.726;-0.444;2023-05-22T15:13:19;1018.4;;;17.9;68.5
73316;BME280;61545;53.726;-0.444;2023-05-22T15:18:10;1018.3;;;17.7;65.2
73316;BME280;61545;53.726;-0.444;2023-05-22T15:23:19;1018.4;;;17.8;65.5
73316;BME280;61545;53.726;-0.444;2023-05-22T15:28:09;1018.5;;;17.5;67.5
73316;BME280;61545;53.726;-0.444;2023-05-22T15:33:09;1018.7;;;17.4;69.2
73316;BME280;61545;53.726;-0.444;2023-05-22T15:38:10;1018.8;;;17.4;70.0
73316;BME280;61545;53.726;-0.444;2023-05-22T15:43:07;1018.8;;;17.4;71.4
73316;BME280;61545;53.726;-0.444;2023-05-22T15:48:20;1018.8;;;17.3;72.4
73316;BME280;61545;53.726;-0.444;2023-05-22T15:53:11;1018.7;;;17.0;73.1
73316;BME280;61545;53.726;-0.444;2023-05-22T15:58:09;1018.7;;;16.9;73.0
73316;BME280;61545;53.726;-0.444;2023-05-22T16:03:07;1018.9;;;17.0;74.3
73316;BME280;61545;53.726;-0.444;2023-05-22T16:08:07;1018.9;;;17.0;73.2
73316;BME280;61545;53.726;-0.444;2023-05-22T16:13:09;1019.0;;;16.9;73.0
73316;BME280;61545;53.726;-0.444;2023-05-22T16:18:10;1018.9;;;16.5;73.1
73316;BME280;61545;53.726;-0.444;2023-05-22T16:23:07;1019.0;;;16.7;74.8
73316;BME280;61545;53.726;-0.444;2023-05-22T16:28:10;1019.0;;;16.6;76.4
73316;BME280;61545;53.726;-0.444;2023-05-22T16:33:09;1019.0;;;16.6;77.5
73316;BME280;61545;53.726;-0.444;2023-05-22T16:38:19;1018.9;;;16.8;78.6
73316;BME280;61545;53.726;-0.444;2023-05-22T16:43:11;1018.8;;;16.6;79.4
73316;BME280;61545;53.726;-0.444;2023-05-22T16:48:20;1019.0;;;16.3;81.0
73316;BME280;61545;53.726;-0.444;2023-05-22T16:53:10;1018.7;;;16.1;84.0
73316;BME280;61545;53.726;-0.444;2023-05-22T16:58:07;1018.8;;;16.3;84.5
73316;BME280;61545;53.726;-0.444;2023-05-22T17:03:09;1018.9;;;16.4;87.6
73316;BME280;61545;53.726;-0.444;2023-05-22T17:08:14;1019.0;;;16.1;86.8
73316;BME280;61545;53.726;-0.444;2023-05-22T17:13:11;1019.1;;;16.0;87.3
73316;BME280;61545;53.726;-0.444;2023-05-22T17:18:11;1019.2;;;16.0;86.9
73316;BME280;61545;53.726;-0.444;2023-05-22T17:23:12;1019.2;;;15.8;88.4
73316;BME280;61545;53.726;-0.444;2023-05-22T17:28:10;1019.2;;;15.7;91.5
73316;BME280;61545;53.726;-0.444;2023-05-22T17:33:07;1019.3;;;15.8;94.8
73316;BME280;61545;53.726;-0.444;2023-05-22T17:38:10;1019.3;;;15.5;95.2
73316;BME280;61545;53.726;-0.444;2023-05-22T17:43:10;1019.5;;;15.5;98.5
73316;BME280;61545;53.726;-0.444;2023-05-22T17:48:10;1019.5;;;15.5;100.0
73316;BME280;61545;53.726;-0.444;2023-05-22T17:53:10;1019.5;;;15.1;100.0
73316;BME280;61545;53.726;-0.444;2023-05-22T18:03:07;1019.7;;;14.9;100.0
73316;BME280;61545;53.726;-0.444;2023-05-22T18:08:07;1019.7;;;14.8;100.0
73316;BME280;61545;53.726;-0.444;2023-05-22T18:13:20;1019.8;;;14.7;100.0
73316;BME280;61545;53.726;-0.444;2023-05-22T18:18:11;1020.0;;;14.6;100.0
73316;BME280;61545;53.726;-0.444;2023-05-22T18:28:10;1020.1;;;14.4;100.0
73316;BME280;61545;53.726;-0.444;2023-05-22T18:33:10;1020.2;;;14.4;100.0
73316;BME280;61545;53.726;-0.444;2023-05-22T18:38:10;1020.2;;;14.2;100.0
73316;BME280;61545;53.726;-0.444;2023-05-22T18:43:11;1020.3;;;14.1;100.0
73316;BME280;61545;53.726;-0.444;2023-05-22T18:48:11;1020.5;;;13.9;100.0
73316;BME280;61545;53.726;-0.444;2023-05-22T18:53:10;1020.5;;;13.9;100.0
73316;BME280;61545;53.726;-0.444;2023-05-22T18:58:08;1020.5;;;13.9;100.0
73316;BME280;61545;53.726;-0.444;2023-05-22T19:08:09;1020.6;;;13.7;100.0
73316;BME280;61545;53.726;-0.444;2023-05-22T19:13:10;1020.7;;;13.6;100.0
73316;BME280;61545;53.726;-0.444;2023-05-22T19:18:20;1020.8;;;13.5;100.0
73316;BME280;61545;53.726;-0.444;2023-05-22T19:23:11;1020.8;;;13.5;100.0
73316;BME280;61545;53.726;-0.444;2023-05-22T19:28:12;1020.9;;;13.3;100.0
73316;BME280;61545;53.726;-0.444;2023-05-22T19:33:07;1021.1;;;13.5;100.0
73316;BME280;61545;53.726;-0.444;2023-05-22T19:43:13;1021.2;;;13.2;100.0
73316;BME280;61545;53.726;-0.444;2023-05-22T19:48:07;1021.2;;;13.2;100.0
73316;BME280;61545;53.726;-0.444;2023-05-22T19:53:07;1021.3;;;13.1;100.0
73316;BME280;61545;53.726;-0.444;2023-05-22T19:58:07;1021.3;;;13.0;100.0
73316;BME280;61545;53.726;-0.444;2023-05-22T20:03:07;1021.4;;;12.9;100.0
73316;BME280;61545;53.726;-0.444;2023-05-22T20:08:10;1021.5;;;12.8;100.0
73316;BME280;61545;53.726;-0.444;2023-05-22T20:13:10;1021.5;;;12.9;100.0
73316;BME280;61545;53.726;-0.444;2023-05-22T20:18:10;1021.5;;;12.9;100.0
73316;BME280;61545;53.726;-0.444;2023-05-22T20:23:09;1021.7;;;12.5;100.0
73316;BME280;61545;53.726;-0.444;2023-05-22T20:28:07;1021.7;;;12.7;100.0
73316;BME280;61545;53.726;-0.444;2023-05-22T20:33:07;1021.8;;;12.4;100.0
73316;BME280;61545;53.726;-0.444;2023-05-22T20:43:07;1021.9;;;12.5;100.0
73316;BME280;61545;53.726;-0.444;2023-05-22T20:48:07;1021.9;;;12.5;100.0
73316;BME280;61545;53.726;-0.444;2023-05-22T20:53:12;1021.9;;;12.5;100.0
73316;BME280;61545;53.726;-0.444;2023-05-22T20:58:07;1022.0;;;12.2;100.0
73316;BME280;61545;53.726;-0.444;2023-05-22T21:03:07;1022.0;;;12.4;100.0
73316;BME280;61545;53.726;-0.444;2023-05-22T21:08:10;1022.0;;;12.4;100.0
73316;BME280;61545;53.726;-0.444;2023-05-22T21:13:10;1022.0;;;12.4;100.0
73316;BME280;61545;53.726;-0.444;2023-05-22T21:18:10;1022.0;;;12.3;100.0
73316;BME280;61545;53.726;-0.444;2023-05-22T21:23:10;1022.1;;;12.5;100.0
73316;BME280;61545;53.726;-0.444;2023-05-22T21:28:10;1022.2;;;12.4;100.0
73316;BME280;61545;53.726;-0.444;2023-05-22T21:33:07;1022.2;;;12.4;100.0
73316;BME280;61545;53.726;-0.444;2023-05-22T21:43:22;1022.2;;;12.4;100.0
73316;BME280;61545;53.726;-0.444;2023-05-22T21:48:10;1022.2;;;12.1;100.0
73316;BME280;61545;53.726;-0.444;2023-05-22T21:53:07;1022.2;;;12.2;100.0
73316;BME280;61545;53.726;-0.444;2023-05-22T21:58:10;1022.2;;;12.2;100.0
73316;BME280;61545;53.726;-0.444;2023-05-22T22:03:10;1022.2;;;12.0;100.0
73316;BME280;61545;53.726;-0.444;2023-05-22T22:08:07;1022.3;;;12.1;100.0
73316;BME280;61545;53.726;-0.444;2023-05-22T22:23:10;1022.2;;;12.0;100.0
73316;BME280;61545;53.726;-0.444;2023-05-22T22:28:21;1022.3;;;11.9;100.0
73316;BME280;61545;53.726;-0.444;2023-05-22T22:43:13;1022.3;;;11.7;100.0
73316;BME280;61545;53.726;-0.444;2023-05-22T22:48:07;1022.3;;;11.7;100.0
73316;BME280;61545;53.726;-0.444;2023-05-22T22:53:10;1022.5;;;11.6;100.0
73316;BME280;61545;53.726;-0.444;2023-05-22T22:58:22;1022.5;;;11.5;100.0
73316;BME280;61545;53.726;-0.444;2023-05-22T23:08:10;1022.8;;;11.6;100.0
73316;BME280;61545;53.726;-0.444;2023-05-22T23:13:11;1022.9;;;11.5;100.0
73316;BME280;61545;53.726;-0.444;2023-05-22T23:23:10;1022.8;;;11.2;100.0
73316;BME280;61545;53.726;-0.444;2023-05-22T23:28:10;1022.8;;;11.2;100.0
73316;BME280;61545;53.726;-0.444;2023-05-22T23:33:12;1022.7;;;11.2;100.0
73316;BME280;61545;53.726;-0.444;2023-05-22T23:48:10;1022.7;;;11.5;100.0
73316;BME280;61545;53.726;-0.444;2023-05-22T23:58:10;1022.9;;;11.2;100.0
